Time;durP1;ratioP1;P1;durP2;ratioP2;P2;SDS_P1;SDS_P2;PMS_P1;PMS_P2;Temp;Humidity;BMP_temperature;BMP_pressure;BME280_temperature;BME280_humidity;BME280_pressure;Samples;Min_cycle;Max_cycle;Signal;HPM_P1;HPM_P2
2023/08/09 00:01:52;;;;;;;3.20;1.90;;;;;;;29.32;37.44;101069.46;103627;1291;61957;-83
2023/08/09 00:04:18;;;;;;;3.10;1.70;;;;;;;29.33;37.30;101070.33;103766;1285;61355;-83
2023/08/09 00:06:44;;;;;;;3.40;1.80;;;;;;;29.33;37.56;101072.16;103974;1285;61402;-83
2023/08/09 00:09:09;;;;;;;2.60;1.70;;;;;;;29.33;37.38;101071.82;103851;1290;61320;-83
2023/08/09 00:11:35;;;;;;;3.20;1.90;;;;;;;29.32;37.53;101064.30;103779;1287;61378;-83
2023/08/09 00:14:01;;;;;;;4.10;2.00;;;;;;;29.32;37.54;101068.47;103817;1289;61321;-83
2023/08/09 00:16:26;;;;;;;2.90;1.90;;;;;;;29.31;37.54;101071.05;103872;1284;61356;-83
2023/08/09 00:18:52;;;;;;;3.10;1.90;;;;;;;29.31;37.51;101071.05;103843;1284;61385;-83
2023/08/09 00:21:17;;;;;;;3.10;1.80;;;;;;;29.31;37.56;101067.08;103700;1289;64814;-83
2023/08/09 00:23:43;;;;;;;3.20;1.90;;;;;;;29.31;37.33;101068.71;103801;1285;61414;-83
2023/08/09 00:26:08;;;;;;;3.60;1.90;;;;;;;29.31;37.58;101072.55;103839;1285;62508;-83
2023/08/09 00:28:34;;;;;;;3.10;1.90;;;;;;;29.30;37.64;101066.59;103823;1285;62742;-83
2023/08/09 00:30:59;;;;;;;4.10;2.00;;;;;;;29.31;37.49;101069.84;103806;1287;61454;-83
2023/08/09 00:33:25;;;;;;;3.80;2.10;;;;;;;29.31;37.46;101070.74;103648;1284;65264;-83
2023/08/09 00:35:51;;;;;;;3.90;1.90;;;;;;;29.31;37.51;101069.84;103743;1285;61385;-83
2023/08/09 00:38:17;;;;;;;4.50;2.20;;;;;;;29.30;37.52;101069.70;103661;1291;61478;-83
2023/08/09 00:40:42;;;;;;;3.80;2.10;;;;;;;29.30;37.72;101077.31;103813;1284;61327;-83
2023/08/09 00:43:08;;;;;;;3.20;2.00;;;;;;;29.30;37.55;101076.45;103790;1284;62485;-83
2023/08/09 00:45:33;;;;;;;3.40;2.00;;;;;;;29.30;37.50;101071.73;103796;1285;61294;-83
2023/08/09 00:48:00;;;;;;;6.40;1.90;;;;;;;29.30;37.51;101072.31;103852;1284;61443;-83
2023/08/09 00:50:26;;;;;;;3.50;1.80;;;;;;;29.29;37.66;101073.65;103809;1285;61851;-83
2023/08/09 00:52:51;;;;;;;3.00;1.90;;;;;;;29.29;37.64;101070.39;103774;1285;61385;-83
2023/08/09 00:55:17;;;;;;;4.00;2.00;;;;;;;29.28;37.62;101072.96;103809;1285;61751;-83
2023/08/09 00:57:42;;;;;;;3.90;2.00;;;;;;;29.29;37.62;101074.00;103832;1284;62511;-83
2023/08/09 01:00:09;;;;;;;4.20;2.30;;;;;;;29.29;37.49;101074.02;103969;1288;61376;-83
2023/08/09 01:02:34;;;;;;;3.10;1.90;;;;;;;29.29;37.66;101074.78;103865;1285;62423;-83
2023/08/09 01:05:04;;;;;;;2.80;2.00;;;;;;;29.28;37.51;101075.56;103795;1286;61411;-83
2023/08/09 01:07:39;;;;;;;3.60;2.10;;;;;;;29.27;37.54;101075.41;103773;1285;63838;-83
2023/08/09 01:10:15;;;;;;;3.30;2.00;;;;;;;29.28;37.73;101077.05;103856;1284;65690;-83
2023/08/09 01:12:48;;;;;;;4.80;2.10;;;;;;;29.27;37.71;101079.45;103830;1288;61258;-83
2023/08/09 01:15:16;;;;;;;3.10;1.90;;;;;;;29.27;37.83;101081.80;103780;1284;61320;-83
2023/08/09 01:17:42;;;;;;;3.70;2.00;;;;;;;29.27;37.62;101079.08;103896;1286;63844;-83
2023/08/09 01:20:12;;;;;;;4.30;2.10;;;;;;;29.27;37.81;101077.09;103723;1284;61324;-83
2023/08/09 01:22:51;;;;;;;3.80;2.00;;;;;;;29.27;37.69;101083.27;103679;1284;61328;-83
2023/08/09 01:25:16;;;;;;;3.30;2.10;;;;;;;29.27;37.55;101081.12;103770;1285;61216;-83
2023/08/09 01:27:42;;;;;;;3.60;2.10;;;;;;;29.27;37.52;101084.73;103685;1287;61385;-83
2023/08/09 01:30:09;;;;;;;3.10;2.00;;;;;;;29.27;37.54;101086.02;103822;1284;61371;-83
2023/08/09 01:32:38;;;;;;;4.30;2.10;;;;;;;29.26;37.65;101085.52;103917;1288;61946;-83
2023/08/09 01:35:04;;;;;;;4.30;2.40;;;;;;;29.26;37.51;101086.78;103729;1285;61379;-84
2023/08/09 01:37:46;;;;;;;3.70;2.20;;;;;;;29.26;37.52;101084.42;103816;1285;61380;-83
2023/08/09 01:40:12;;;;;;;3.40;1.90;;;;;;;29.25;37.48;101086.11;103847;1286;65936;-82
2023/08/09 01:42:39;;;;;;;3.10;1.90;;;;;;;29.25;37.60;101087.38;103863;1285;62109;-82
2023/08/09 01:45:06;;;;;;;4.20;2.20;;;;;;;29.26;37.56;101085.18;103620;1291;61470;-82
2023/08/09 01:47:32;;;;;;;3.70;2.10;;;;;;;29.25;37.49;101085.95;103912;1285;61417;-82
2023/08/09 01:50:00;;;;;;;5.50;2.20;;;;;;;29.25;37.61;101087.20;103940;1285;65884;-82
2023/08/09 01:52:25;;;;;;;3.90;2.10;;;;;;;29.25;37.56;101088.33;103856;1284;61842;-82
2023/08/09 01:54:51;;;;;;;3.40;1.90;;;;;;;29.25;37.40;101084.14;103877;1284;61442;-82
2023/08/09 01:57:16;;;;;;;3.30;1.80;;;;;;;29.24;37.47;101089.10;103782;1284;61464;-82
2023/08/09 01:59:42;;;;;;;4.50;2.00;;;;;;;29.24;37.48;101088.90;103685;1291;61299;-83
2023/08/09 02:02:08;;;;;;;2.90;1.90;;;;;;;29.25;37.53;101091.61;103838;1285;65652;-83
2023/08/09 02:04:33;;;;;;;3.60;2.00;;;;;;;29.25;37.54;101099.02;104012;1284;61394;-83
2023/08/09 02:06:59;;;;;;;2.90;1.90;;;;;;;29.24;37.55;101102.88;103815;1284;62120;-83
2023/08/09 02:09:26;;;;;;;3.70;1.90;;;;;;;29.24;37.46;101100.32;103770;1284;61440;-83
2023/08/09 02:11:53;;;;;;;4.00;1.80;;;;;;;29.23;37.62;101101.14;103779;1290;61342;-83
2023/08/09 02:14:18;;;;;;;3.50;2.00;;;;;;;29.24;37.60;101099.14;103793;1285;61375;-83
2023/08/09 02:16:44;;;;;;;3.00;1.90;;;;;;;29.24;37.57;101102.95;103801;1285;61832;-83
2023/08/09 02:19:09;;;;;;;3.20;2.10;;;;;;;29.24;37.55;101098.60;103817;1289;61406;-83
2023/08/09 02:21:39;;;;;;;3.00;2.00;;;;;;;29.23;37.57;101099.89;103918;1285;64340;-83
2023/08/09 02:24:06;;;;;;;3.10;2.00;;;;;;;29.23;37.54;101102.46;103784;1285;65795;-83
2023/08/09 02:26:33;;;;;;;4.50;2.10;;;;;;;29.23;37.51;101105.73;103867;1285;61330;-83
2023/08/09 02:28:59;;;;;;;4.30;2.00;;;;;;;29.23;37.58;101105.39;103555;1287;61744;-83
2023/08/09 02:31:25;;;;;;;3.70;2.10;;;;;;;29.23;37.57;101105.92;104046;1285;61376;-83
2023/08/09 02:33:50;;;;;;;2.80;2.00;;;;;;;29.23;37.47;101107.02;103786;1285;61352;-83
2023/08/09 02:36:16;;;;;;;3.30;2.00;;;;;;;29.23;37.50;101106.14;103824;1284;61762;-83
2023/08/09 02:38:41;;;;;;;3.60;1.90;;;;;;;29.22;37.72;101110.88;103853;1284;61445;-83
2023/08/09 02:41:07;;;;;;;4.10;2.00;;;;;;;29.22;37.53;101111.46;103921;1284;61414;-83
2023/08/09 02:43:33;;;;;;;3.40;1.90;;;;;;;29.22;37.55;101114.51;103823;1285;61384;-83
2023/08/09 02:45:59;;;;;;;4.00;1.90;;;;;;;29.21;37.70;101116.20;103821;1285;66569;-83
2023/08/09 02:48:25;;;;;;;4.00;2.20;;;;;;;29.21;37.44;101109.55;103778;1285;61859;-83
2023/08/09 02:50:51;;;;;;;4.10;1.90;;;;;;;29.21;37.60;101110.06;103838;1288;62587;-83
2023/08/09 02:53:20;;;;;;;4.90;2.10;;;;;;;29.21;37.60;101108.86;103851;1289;61278;-83
2023/08/09 02:55:45;;;;;;;2.90;1.80;;;;;;;29.21;37.57;101109.21;103901;1284;66060;-83
2023/08/09 02:58:11;;;;;;;3.30;2.10;;;;;;;29.20;37.80;101108.52;104058;1284;61405;-83
2023/08/09 03:00:36;;;;;;;4.20;2.10;;;;;;;29.21;37.67;101109.40;103833;1284;61393;-83
2023/08/09 03:03:04;;;;;;;4.70;1.90;;;;;;;29.20;37.68;101112.15;103594;1285;61385;-83
2023/08/09 03:05:30;;;;;;;2.70;1.70;;;;;;;29.20;37.56;101113.98;103863;1285;61421;-83
2023/08/09 03:07:55;;;;;;;4.80;1.90;;;;;;;29.20;37.67;101118.73;103850;1285;61377;-83
2023/08/09 03:10:21;;;;;;;4.00;2.20;;;;;;;29.20;37.71;101123.81;103872;1285;61375;-83
2023/08/09 03:12:46;;;;;;;4.10;2.00;;;;;;;29.20;37.68;101124.73;103692;1285;61832;-83
2023/08/09 03:15:13;;;;;;;4.60;2.00;;;;;;;29.20;37.87;101126.16;103791;1285;61348;-83
2023/08/09 03:17:39;;;;;;;4.00;2.10;;;;;;;29.19;37.75;101131.83;103808;1287;65607;-83
2023/08/09 03:20:14;;;;;;;3.60;2.00;;;;;;;29.19;37.55;101130.56;103880;1284;61382;-83
2023/08/09 03:22:41;;;;;;;3.50;1.80;;;;;;;29.19;37.60;101134.38;103618;1288;61395;-83
2023/08/09 03:25:07;;;;;;;3.00;1.80;;;;;;;29.19;37.42;101138.77;103850;1285;63894;-83
2023/08/09 03:27:34;;;;;;;3.60;1.90;;;;;;;29.18;37.64;101139.35;103746;1285;65879;-83
2023/08/09 03:30:00;;;;;;;3.90;1.90;;;;;;;29.18;37.65;101138.98;103806;1284;61398;-83
2023/08/09 03:32:25;;;;;;;2.90;1.90;;;;;;;29.18;37.65;101140.10;103757;1284;61776;-83
2023/08/09 03:34:51;;;;;;;3.70;2.00;;;;;;;29.18;37.64;101139.92;103856;1288;61377;-82
2023/08/09 03:37:16;;;;;;;4.90;2.00;;;;;;;29.18;37.62;101140.30;103935;1284;61386;-83
2023/08/09 03:39:43;;;;;;;3.50;2.00;;;;;;;29.18;37.66;101142.33;103840;1285;65886;-83
2023/08/09 03:42:08;;;;;;;2.60;1.70;;;;;;;29.19;37.63;101146.04;103898;1285;61407;-83
2023/08/09 03:44:34;;;;;;;4.20;2.00;;;;;;;29.18;37.78;101143.75;103664;1284;61575;-83
2023/08/09 03:46:59;;;;;;;3.20;1.80;;;;;;;29.18;37.80;101147.00;103943;1284;61356;-83
2023/08/09 03:49:25;;;;;;;4.20;2.00;;;;;;;29.18;37.81;101147.39;104025;1284;61372;-83
2023/08/09 03:51:51;;;;;;;2.90;1.70;;;;;;;29.17;37.79;101144.35;103857;1285;65903;-83
2023/08/09 03:54:16;;;;;;;4.10;2.00;;;;;;;29.18;37.88;101147.89;103876;1284;61759;-83
2023/08/09 03:56:42;;;;;;;3.40;1.90;;;;;;;29.18;37.63;101149.71;103781;1285;61456;-83
2023/08/09 03:59:08;;;;;;;3.80;2.00;;;;;;;29.18;37.75;101149.55;103808;1285;61318;-83
2023/08/09 04:01:33;;;;;;;3.20;1.90;;;;;;;29.18;37.83;101154.41;103911;1284;61401;-83
2023/08/09 04:03:59;;;;;;;4.90;2.10;;;;;;;29.18;37.78;101156.08;103804;1285;62579;-83
2023/08/09 04:06:24;;;;;;;3.70;2.20;;;;;;;29.18;37.51;101159.71;103881;1284;61376;-83
2023/08/09 04:08:50;;;;;;;2.70;1.80;;;;;;;29.18;37.63;101162.46;103955;1284;62075;-83
2023/08/09 04:11:16;;;;;;;3.10;2.00;;;;;;;29.17;37.68;101164.13;103796;1284;61411;-83
2023/08/09 04:13:41;;;;;;;4.90;2.00;;;;;;;29.17;37.63;101166.55;103928;1284;61311;-83
2023/08/09 04:16:07;;;;;;;4.20;2.40;;;;;;;29.16;37.53;101168.02;103853;1284;61382;-83
2023/08/09 04:18:33;;;;;;;4.20;2.00;;;;;;;29.16;37.46;101165.34;103859;1286;62384;-83
2023/08/09 04:20:58;;;;;;;4.40;2.10;;;;;;;29.16;37.62;101166.79;103817;1285;61411;-83
2023/08/09 04:23:24;;;;;;;4.90;2.10;;;;;;;29.16;37.54;101171.88;104029;1284;61325;-83
2023/08/09 04:25:50;;;;;;;3.90;2.10;;;;;;;29.16;37.23;101176.04;103790;1286;61272;-83
2023/08/09 04:28:15;;;;;;;5.50;2.10;;;;;;;29.16;37.60;101174.41;103844;1284;61322;-82
2023/08/09 04:30:41;;;;;;;5.20;2.10;;;;;;;29.15;37.55;101170.86;103809;1285;61520;-82
2023/08/09 04:33:07;;;;;;;4.90;2.10;;;;;;;29.15;37.39;101173.64;103801;1286;61365;-83
2023/08/09 04:35:33;;;;;;;5.00;2.20;;;;;;;29.14;37.24;101177.36;103799;1285;61392;-83
2023/08/09 04:37:59;;;;;;;3.40;1.80;;;;;;;29.13;36.97;101177.41;103667;1284;61418;-83
2023/08/09 04:40:25;;;;;;;7.00;2.20;;;;;;;29.12;37.22;101182.21;103977;1284;61389;-83
2023/08/09 04:42:51;;;;;;;5.40;2.20;;;;;;;29.12;37.23;101179.18;103729;1285;61455;-83
2023/08/09 04:45:16;;;;;;;7.70;2.40;;;;;;;29.11;37.13;101185.98;103782;1284;61532;-83
2023/08/09 04:47:42;;;;;;;7.10;2.00;;;;;;;29.10;37.03;101186.00;103793;1290;62472;-83
2023/08/09 04:50:08;;;;;;;5.90;2.10;;;;;;;29.10;36.77;101191.88;103805;1285;65797;-83
2023/08/09 04:52:34;;;;;;;4.00;2.30;;;;;;;29.09;36.48;101191.95;103787;1284;61403;-83
2023/08/09 04:55:00;;;;;;;14.00;2.60;;;;;;;29.08;36.62;101196.52;103828;1284;62006;-83
2023/08/09 04:57:26;;;;;;;14.30;2.70;;;;;;;29.08;36.53;101197.63;104117;1289;61459;-83
2023/08/09 04:59:51;;;;;;;9.60;2.60;;;;;;;29.08;36.39;101200.39;103758;1284;61402;-83
2023/08/09 05:02:18;;;;;;;9.00;2.60;;;;;;;29.08;36.21;101200.17;103824;1285;61286;-82
2023/08/09 05:04:43;;;;;;;8.30;2.20;;;;;;;29.08;36.29;101203.84;103883;1284;61374;-83
2023/08/09 05:07:09;;;;;;;7.80;2.40;;;;;;;29.08;36.37;101208.52;103923;1284;61413;-81
2023/08/09 05:09:35;;;;;;;5.80;2.00;;;;;;;29.07;36.22;101208.98;104394;1284;65073;-82
2023/08/09 05:12:00;;;;;;;6.70;2.30;;;;;;;29.07;35.97;101210.46;103983;1284;61432;-83
2023/08/09 05:14:26;;;;;;;9.90;2.20;;;;;;;29.07;35.88;101209.01;103908;1284;61367;-83
2023/08/09 05:16:52;;;;;;;6.90;2.00;;;;;;;29.07;35.85;101209.17;104015;1285;61778;-81
2023/08/09 05:19:18;;;;;;;5.20;1.70;;;;;;;29.07;35.83;101206.42;104213;1285;61352;-82
2023/08/09 05:21:44;;;;;;;5.30;2.10;;;;;;;29.08;35.86;101209.92;104000;1287;61492;-83
2023/08/09 05:24:09;;;;;;;7.50;2.00;;;;;;;29.09;35.90;101212.77;104076;1284;61396;-82
2023/08/09 05:26:35;;;;;;;4.70;2.00;;;;;;;29.10;35.72;101216.14;104137;1284;61847;-83
2023/08/09 05:29:01;;;;;;;7.20;2.20;;;;;;;29.10;35.60;101217.96;104035;1288;61332;-83
2023/08/09 05:31:27;;;;;;;4.30;1.80;;;;;;;29.08;35.40;101215.00;104025;1285;61391;-82
2023/08/09 05:33:53;;;;;;;10.30;2.30;;;;;;;29.06;35.25;101211.79;104037;1284;61259;-82
2023/08/09 05:36:18;;;;;;;5.50;2.40;;;;;;;29.05;35.27;101213.57;104087;1285;61378;-82
2023/08/09 05:38:44;;;;;;;7.50;2.50;;;;;;;29.04;35.15;101215.66;103962;1284;61459;-83
2023/08/09 05:41:09;;;;;;;8.10;2.60;;;;;;;29.03;34.95;101221.53;103646;1285;61381;-82
2023/08/09 05:43:35;;;;;;;5.30;2.30;;;;;;;29.03;34.85;101223.91;104163;1285;61443;-83
2023/08/09 05:46:02;;;;;;;6.60;2.30;;;;;;;29.03;34.71;101225.91;104023;1286;63046;-83
2023/08/09 05:48:27;;;;;;;5.10;2.20;;;;;;;29.02;34.51;101222.74;103879;1287;61359;-82
2023/08/09 05:50:53;;;;;;;6.90;2.10;;;;;;;29.02;34.49;101227.26;104112;1284;61335;-82
2023/08/09 05:53:19;;;;;;;4.70;2.20;;;;;;;29.02;34.56;101229.98;103906;1287;61420;-82
2023/08/09 05:55:44;;;;;;;4.40;2.20;;;;;;;29.02;34.29;101232.01;103859;1284;61431;-83
2023/08/09 05:58:10;;;;;;;7.90;2.80;;;;;;;29.01;34.11;101228.10;103889;1285;65833;-82
2023/08/09 06:00:37;;;;;;;8.00;2.70;;;;;;;29.01;34.08;101231.48;104054;1286;61408;-82
2023/08/09 06:03:03;;;;;;;7.30;2.50;;;;;;;29.00;34.00;101233.59;103935;1284;61343;-83
2023/08/09 06:05:29;;;;;;;6.70;2.40;;;;;;;29.01;33.93;101232.98;103985;1284;61272;-82
2023/08/09 06:07:55;;;;;;;6.40;2.10;;;;;;;29.02;33.77;101239.83;103985;1285;62467;-82
2023/08/09 06:10:20;;;;;;;7.30;2.30;;;;;;;29.02;33.88;101232.38;103962;1284;63205;-83
2023/08/09 06:12:49;;;;;;;8.50;1.90;;;;;;;29.01;33.96;101232.73;103810;1291;61498;-82
2023/08/09 06:15:16;;;;;;;5.90;1.90;;;;;;;29.01;33.55;101234.04;104271;1287;61426;-82
2023/08/09 06:17:41;;;;;;;4.90;1.90;;;;;;;29.01;33.52;101229.55;104202;1289;61327;-82
2023/08/09 06:20:07;;;;;;;3.70;1.60;;;;;;;29.02;33.67;101230.15;104148;1284;61397;-82
2023/08/09 06:22:33;;;;;;;9.90;2.00;;;;;;;29.03;33.69;101229.16;103969;1284;61318;-81
2023/08/09 06:24:59;;;;;;;4.50;2.00;;;;;;;29.03;33.61;101226.98;104248;1288;61407;-81
2023/08/09 06:27:24;;;;;;;3.40;1.70;;;;;;;29.04;33.65;101227.59;104364;1287;61407;-82
2023/08/09 06:29:50;;;;;;;2.40;1.30;;;;;;;29.05;33.43;101227.33;104025;1287;65610;-82
2023/08/09 06:32:15;;;;;;;5.00;2.10;;;;;;;29.06;33.37;101236.46;104144;1284;61337;-82
2023/08/09 06:34:42;;;;;;;4.60;1.60;;;;;;;29.07;33.68;101236.73;104082;1284;61750;-81
2023/08/09 06:37:08;;;;;;;5.40;1.70;;;;;;;29.08;33.55;101237.89;104216;1287;61313;-82
2023/08/09 06:39:34;;;;;;;2.40;1.60;;;;;;;29.09;33.46;101239.58;104050;1284;285283;-83
2023/08/09 06:42:01;;;;;;;3.90;1.90;;;;;;;29.10;33.62;101234.65;104288;1284;61401;-82
2023/08/09 06:44:26;;;;;;;5.00;1.70;;;;;;;29.11;33.51;101236.13;104080;1286;61360;-83
2023/08/09 06:46:53;;;;;;;3.40;1.60;;;;;;;29.13;33.46;101233.64;104174;1288;61371;-83
2023/08/09 06:49:23;;;;;;;3.80;1.50;;;;;;;29.13;33.53;101236.11;104172;1287;61472;-82
2023/08/09 06:51:49;;;;;;;4.60;1.80;;;;;;;29.13;33.46;101235.54;104087;1285;61293;-82
2023/08/09 06:54:15;;;;;;;5.70;1.90;;;;;;;29.14;33.24;101234.63;103995;1285;61475;-83
2023/08/09 06:56:41;;;;;;;4.60;1.80;;;;;;;29.14;33.26;101235.86;103973;1287;61411;-82
2023/08/09 06:59:07;;;;;;;2.70;1.70;;;;;;;29.13;33.26;101235.20;104141;1289;61410;-82
2023/08/09 07:01:32;;;;;;;5.00;1.90;;;;;;;29.13;33.13;101234.31;104214;1284;61386;-83
2023/08/09 07:03:58;;;;;;;3.60;1.60;;;;;;;29.11;33.03;101238.13;104133;1284;61382;-82
2023/08/09 07:06:24;;;;;;;3.00;1.60;;;;;;;29.10;32.76;101233.89;104056;1285;61398;-82
2023/08/09 07:08:53;;;;;;;6.20;1.90;;;;;;;29.10;32.86;101227.77;104122;1288;61472;-82
2023/08/09 07:11:21;;;;;;;3.00;1.60;;;;;;;29.10;32.76;101224.66;104173;1284;66632;-82
2023/08/09 07:13:47;;;;;;;2.90;1.70;;;;;;;29.11;32.88;101229.66;104164;1285;61394;-82
2023/08/09 07:16:12;;;;;;;8.10;1.80;;;;;;;29.11;32.86;101224.40;104196;1291;61349;-83
2023/08/09 07:18:38;;;;;;;5.30;2.00;;;;;;;29.12;32.70;101225.21;104014;1284;61257;-82
2023/08/09 07:21:04;;;;;;;5.00;1.80;;;;;;;29.12;32.86;101227.06;104186;1285;61383;-81
2023/08/09 07:23:31;;;;;;;4.20;1.70;;;;;;;29.11;32.67;101220.91;104079;1284;65789;-82
2023/08/09 07:25:57;;;;;;;5.40;1.90;;;;;;;29.11;32.67;101222.02;103989;1284;61956;-83
2023/08/09 07:28:24;;;;;;;3.40;1.40;;;;;;;29.12;32.60;101225.59;104042;1287;61398;-83
2023/08/09 07:30:52;;;;;;;2.70;1.60;;;;;;;29.12;32.79;101222.27;104050;1284;61388;-82
2023/08/09 07:33:20;;;;;;;4.70;1.90;;;;;;;29.13;32.67;101221.86;103977;1286;65867;-83
2023/08/09 07:35:46;;;;;;;6.80;1.50;;;;;;;29.13;32.49;101218.06;104013;1284;61283;-82
2023/08/09 07:38:12;;;;;;;3.40;1.50;;;;;;;29.13;32.62;101220.40;104004;1284;61393;-82
2023/08/09 07:40:37;;;;;;;2.20;1.40;;;;;;;29.13;32.51;101216.44;103938;1285;61364;-83
2023/08/09 07:43:03;;;;;;;2.50;1.30;;;;;;;29.13;32.67;101213.69;103924;1284;61886;-83
2023/08/09 07:45:29;;;;;;;2.80;1.60;;;;;;;29.13;32.67;101213.10;104048;1285;61329;-82
2023/08/09 07:47:54;;;;;;;4.20;1.50;;;;;;;29.14;32.65;101208.70;103747;1284;61352;-83
2023/08/09 07:50:20;;;;;;;3.20;1.70;;;;;;;29.14;32.47;101208.10;103858;1288;61459;-82
2023/08/09 07:52:49;;;;;;;1.80;1.30;;;;;;;29.14;32.48;101203.05;104016;1288;61379;-82
2023/08/09 07:55:15;;;;;;;;;;;;;;;29.15;32.32;101204.25;104167;1284;65738;-81
2023/08/09 07:57:40;;;;;;;4.30;1.40;;;;;;;29.12;32.37;101203.41;104103;1284;61386;-82
2023/08/09 08:00:12;;;;;;;3.90;1.30;;;;;;;29.13;32.28;101197.95;104015;1285;61382;-82
2023/08/09 08:02:45;;;;;;;3.20;1.40;;;;;;;29.12;32.28;101195.84;104036;1285;63848;-82
2023/08/09 08:05:12;;;;;;;3.40;1.50;;;;;;;29.12;32.20;101199.23;104071;1285;65921;-82
2023/08/09 08:07:38;;;;;;;1.90;1.20;;;;;;;29.12;32.31;101198.01;103919;1285;61443;-82
2023/08/09 08:10:08;;;;;;;4.80;1.60;;;;;;;29.12;32.22;101191.99;104093;1284;62555;-82
2023/08/09 08:12:38;;;;;;;2.60;1.30;;;;;;;29.11;32.12;101189.77;103890;1285;62518;-82
2023/08/09 08:15:04;;;;;;;3.80;1.40;;;;;;;29.11;32.13;101191.38;104105;1284;61322;-82
2023/08/09 08:17:31;;;;;;;4.70;1.40;;;;;;;29.11;32.24;101189.58;103755;1284;61475;-82
2023/08/09 08:19:59;;;;;;;3.10;1.50;;;;;;;29.11;31.98;101183.59;104122;1285;61293;-82
2023/08/09 08:22:25;;;;;;;3.20;1.30;;;;;;;29.10;31.85;101184.00;104079;1284;63849;-82
2023/08/09 08:24:54;;;;;;;3.00;1.30;;;;;;;29.11;31.83;101181.46;104097;1285;65760;-82
2023/08/09 08:27:20;;;;;;;2.30;1.10;;;;;;;29.11;31.79;101179.83;104131;1285;61469;-82
2023/08/09 08:29:45;;;;;;;4.50;1.30;;;;;;;29.11;31.86;101182.13;104216;1286;61379;-82
2023/08/09 08:32:11;;;;;;;3.80;1.40;;;;;;;29.12;32.09;101184.80;103969;1285;61840;-82
2023/08/09 08:34:37;;;;;;;3.90;1.50;;;;;;;29.13;31.98;101183.02;104013;1285;62522;-82
2023/08/09 08:37:04;;;;;;;2.40;1.20;;;;;;;29.13;31.96;101179.56;104110;1288;61141;-82
2023/08/09 08:39:36;;;;;;;3.10;1.50;;;;;;;29.13;31.93;101176.35;104185;1284;61394;-82
2023/08/09 08:42:02;;;;;;;2.50;1.50;;;;;;;29.13;32.17;101179.58;104004;1284;63861;-83
2023/08/09 08:44:27;;;;;;;9.70;2.00;;;;;;;29.13;31.72;101176.85;104003;1285;61462;-83
2023/08/09 08:46:53;;;;;;;7.10;1.80;;;;;;;29.13;31.79;101170.20;104355;1284;61300;-83
2023/08/09 08:49:26;;;;;;;9.20;1.80;;;;;;;29.13;31.70;101161.29;104087;1285;61387;-83
2023/08/09 08:51:54;;;;;;;5.40;1.60;;;;;;;29.14;31.77;101163.38;104199;1286;63944;-82
2023/08/09 08:54:20;;;;;;;7.10;1.70;;;;;;;29.15;31.82;101162.02;103905;1287;65886;-83
2023/08/09 08:56:47;;;;;;;4.10;1.50;;;;;;;29.15;31.78;101154.17;104119;1284;61745;-82
2023/08/09 08:59:12;;;;;;;5.90;1.70;;;;;;;29.16;31.84;101148.14;104016;1285;61420;-83
2023/08/09 09:01:38;;;;;;;6.00;1.60;;;;;;;29.17;31.95;101148.96;104215;1288;61301;-82
2023/08/09 09:04:04;;;;;;;4.50;1.60;;;;;;;29.17;31.91;101145.31;104296;1288;61405;-82
2023/08/09 09:06:30;;;;;;;4.70;1.60;;;;;;;29.18;31.95;101143.77;104043;1284;62295;-82
2023/08/09 09:08:56;;;;;;;6.80;1.70;;;;;;;29.19;32.07;101144.05;104099;1287;61404;-82
2023/08/09 09:11:22;;;;;;;5.40;1.50;;;;;;;29.19;31.88;101141.84;103797;1286;61459;-82
2023/08/09 09:13:50;;;;;;;4.70;1.70;;;;;;;29.20;31.86;101143.77;103853;1284;63636;-82
2023/08/09 09:16:19;;;;;;;3.90;1.80;;;;;;;29.20;31.93;101141.90;104066;1284;65744;-82
2023/08/09 09:18:48;;;;;;;5.50;1.70;;;;;;;29.20;31.90;101139.17;103928;1286;61433;-82
2023/08/09 09:21:17;;;;;;;5.20;1.60;;;;;;;29.20;31.84;101142.43;103956;1287;61331;-83
2023/08/09 09:23:43;;;;;;;5.10;1.50;;;;;;;29.20;31.87;101143.17;104078;1287;63738;-82
2023/08/09 09:26:10;;;;;;;5.40;1.70;;;;;;;29.20;31.68;101138.11;104123;1290;61372;-82
2023/08/09 09:28:41;;;;;;;4.80;1.50;;;;;;;29.20;31.73;101137.94;104145;1286;61375;-83
2023/08/09 09:31:08;;;;;;;5.90;1.60;;;;;;;29.20;31.76;101136.64;104143;1289;61341;-83
2023/08/09 09:33:35;;;;;;;3.20;1.40;;;;;;;29.20;31.83;101138.42;104025;1289;63657;-83
2023/08/09 09:36:04;;;;;;;4.20;1.70;;;;;;;29.21;31.96;101136.96;104035;1284;61359;-82
2023/08/09 09:38:29;;;;;;;;;;;;;;;29.20;31.86;101130.65;104108;1284;61305;-82
2023/08/09 09:40:56;;;;;;;3.10;1.60;;;;;;;29.18;31.87;101127.97;104085;1284;61332;-83
2023/08/09 09:43:27;;;;;;;2.50;1.40;;;;;;;29.18;31.71;101129.02;104032;1287;64276;-84
2023/08/09 09:45:54;;;;;;;2.70;1.50;;;;;;;29.19;31.64;101133.56;103860;1285;65777;-82
2023/08/09 09:48:20;;;;;;;3.20;1.30;;;;;;;29.18;31.75;101129.73;104051;1285;62448;-83
2023/08/09 09:50:48;;;;;;;6.30;1.50;;;;;;;29.19;32.00;101129.71;104058;1284;62467;-82
2023/08/09 09:53:18;;;;;;;5.40;1.40;;;;;;;29.19;31.84;101129.88;104162;1285;63997;-83
2023/08/09 09:55:44;;;;;;;3.50;1.50;;;;;;;29.18;31.68;101124.50;104071;1285;65552;-81
2023/08/09 09:58:12;;;;;;;4.30;1.50;;;;;;;29.19;31.69;101122.48;104257;1284;61350;-83
2023/08/09 10:00:52;;;;;;;5.60;1.60;;;;;;;29.18;31.74;101114.70;104026;1284;61371;-83
2023/08/09 10:03:18;;;;;;;4.30;1.50;;;;;;;29.19;31.72;101112.69;103974;1284;63783;-82
2023/08/09 10:05:45;;;;;;;3.60;1.40;;;;;;;29.20;31.60;101112.42;103934;1285;65780;-83
2023/08/09 10:08:13;;;;;;;1.80;1.20;;;;;;;29.20;31.66;101108.73;103765;1284;61304;-82
2023/08/09 10:10:39;;;;;;;3.30;1.30;;;;;;;29.21;31.47;101106.69;103767;1292;61528;-82
2023/08/09 10:13:07;;;;;;;2.70;1.20;;;;;;;29.21;31.47;101108.31;103860;1287;61276;-82
2023/08/09 10:15:44;;;;;;;4.10;1.50;;;;;;;29.21;31.40;101105.00;103784;1284;65896;-83
2023/08/09 10:18:23;;;;;;;3.40;1.40;;;;;;;29.21;31.49;101100.27;104112;1284;61366;-83
2023/08/09 10:20:52;;;;;;;4.10;1.50;;;;;;;29.21;31.54;101099.06;103988;1286;61309;-82
2023/08/09 10:23:28;;;;;;;4.40;1.60;;;;;;;29.21;31.39;101096.85;103853;1290;62657;-83
2023/08/09 10:25:55;;;;;;;5.40;1.60;;;;;;;29.21;31.35;101094.13;103720;1284;65643;-83
2023/08/09 10:28:47;;;;;;;2.90;1.40;;;;;;;29.21;31.46;101093.95;103848;1286;61476;-83
2023/08/09 10:31:13;;;;;;;4.50;1.50;;;;;;;29.21;31.41;101091.61;103998;1284;61991;-83
2023/08/09 10:34:07;;;;;;;4.90;1.50;;;;;;;29.21;31.64;101092.70;103874;1286;61731;-83
2023/08/09 10:36:33;;;;;;;4.10;1.60;;;;;;;29.21;31.35;101086.91;103790;1288;65655;-83
2023/08/09 10:38:58;;;;;;;4.00;1.30;;;;;;;29.21;31.31;101086.34;103685;1287;61451;-83
2023/08/09 10:41:27;;;;;;;2.60;1.40;;;;;;;29.21;31.46;101082.73;103673;1284;61432;-83
2023/08/09 10:44:03;;;;;;;3.20;1.30;;;;;;;29.21;31.27;101079.08;103966;1284;63913;-83
2023/08/09 10:46:33;;;;;;;3.40;1.40;;;;;;;29.21;31.49;101075.80;103788;1287;65685;-83
2023/08/09 10:48:59;;;;;;;3.00;1.50;;;;;;;29.21;31.52;101072.73;104015;1288;62130;-83
2023/08/09 10:51:25;;;;;;;2.00;1.20;;;;;;;29.22;31.60;101076.11;103787;1285;61359;-83
2023/08/09 10:53:58;;;;;;;2.90;1.40;;;;;;;29.22;31.53;101078.46;103798;1287;61310;-83
2023/08/09 10:56:31;;;;;;;4.50;1.50;;;;;;;29.22;31.37;101077.38;103786;1290;65771;-83
2023/08/09 10:59:07;;;;;;;5.50;1.50;;;;;;;29.22;31.41;101072.35;103976;1287;61276;-83
2023/08/09 11:01:34;;;;;;;3.00;1.40;;;;;;;29.21;31.43;101065.14;104131;1285;61295;-83
2023/08/09 11:04:04;;;;;;;3.00;1.70;;;;;;;29.21;31.37;101059.94;103804;1287;64047;-83
2023/08/09 11:06:32;;;;;;;;;;;;;;;29.21;31.40;101050.77;103967;1284;65758;-83
2023/08/09 11:09:05;;;;;;;;;;;;;;;29.20;31.36;101053.10;104054;1284;61205;-83
2023/08/09 11:11:33;;;;;;;1.90;1.40;;;;;;;29.19;31.22;101052.48;103960;1284;61317;-83
2023/08/09 11:13:58;;;;;;;3.30;1.50;;;;;;;29.20;31.31;101046.56;103954;1284;61450;-83
2023/08/09 11:16:24;;;;;;;3.80;1.60;;;;;;;29.20;31.15;101044.23;103811;1285;61327;-83